createdAt,value
2024-02-24T00:01:54.140Z,1.97
2024-02-24T00:04:21.208Z,2.50
2024-02-24T00:06:48.217Z,2.00
2024-02-24T00:09:15.166Z,2.03
2024-02-24T00:11:42.341Z,1.93
2024-02-24T00:14:09.348Z,2.10
2024-02-24T00:16:36.341Z,2.13
2024-02-24T00:19:03.306Z,2.50
2024-02-24T00:21:30.395Z,2.70
2024-02-24T00:23:57.311Z,3.30
2024-02-24T00:26:24.432Z,2.67
2024-02-24T00:28:51.226Z,2.23
2024-02-24T00:31:18.514Z,2.63
2024-02-24T00:33:45.442Z,2.43
2024-02-24T00:36:12.510Z,3.00
2024-02-24T00:38:40.083Z,3.03
2024-02-24T00:41:07.256Z,3.33
2024-02-24T00:43:34.448Z,3.30
2024-02-24T00:46:01.700Z,2.90
2024-02-24T00:48:31.994Z,2.90
2024-02-24T00:50:59.350Z,2.63
2024-02-24T00:53:28.329Z,2.70
2024-02-24T00:55:55.535Z,3.20
2024-02-24T00:58:22.468Z,2.90
2024-02-24T01:00:49.574Z,3.80
2024-02-24T01:03:16.655Z,3.47
2024-02-24T01:05:43.902Z,3.17
2024-02-24T01:08:11.104Z,3.67
2024-02-24T01:10:38.305Z,3.33
2024-02-24T01:13:05.334Z,3.17
2024-02-24T01:15:33.785Z,3.03
2024-02-24T01:18:02.001Z,3.33
2024-02-24T01:20:30.559Z,2.63
2024-02-24T01:22:59.636Z,2.80
2024-02-24T01:25:27.091Z,2.60
2024-02-24T01:27:55.000Z,3.03
2024-02-24T01:30:22.060Z,4.40
2024-02-24T01:32:49.439Z,3.20
2024-02-24T01:35:16.782Z,3.17
2024-02-24T01:37:43.749Z,3.23
2024-02-24T01:40:11.059Z,3.40
2024-02-24T01:42:38.168Z,4.70
2024-02-24T01:45:05.744Z,3.20
2024-02-24T01:47:32.871Z,3.37
2024-02-24T01:50:00.075Z,3.20
2024-02-24T01:52:27.304Z,3.40
2024-02-24T01:54:59.898Z,3.30
2024-02-24T01:57:29.324Z,2.23
2024-02-24T01:59:57.780Z,2.97
2024-02-24T02:02:29.709Z,2.10
2024-02-24T02:04:56.717Z,2.10
2024-02-24T02:07:23.660Z,1.80
2024-02-24T02:09:58.037Z,1.70
2024-02-24T02:12:26.165Z,1.50
2024-02-24T02:14:53.377Z,0.90
2024-02-24T02:17:20.930Z,1.37
2024-02-24T02:19:48.241Z,0.50
2024-02-24T02:22:19.374Z,1.23
2024-02-24T02:24:46.994Z,0.87
2024-02-24T02:27:13.934Z,1.00
2024-02-24T02:29:41.420Z,0.73
2024-02-24T02:32:09.589Z,1.47
2024-02-24T02:34:37.315Z,0.60
2024-02-24T02:37:04.685Z,0.53
2024-02-24T02:39:32.300Z,0.53
2024-02-24T02:41:59.429Z,0.50
2024-02-24T02:44:26.463Z,0.50
2024-02-24T02:46:53.549Z,0.80
2024-02-24T02:49:20.724Z,0.50
2024-02-24T02:51:47.870Z,0.80
2024-02-24T02:54:14.933Z,0.40
2024-02-24T02:56:42.095Z,0.50
2024-02-24T02:59:09.154Z,0.33
2024-02-24T03:01:36.085Z,0.40
2024-02-24T03:04:03.191Z,0.50
2024-02-24T03:06:33.630Z,0.40
2024-02-24T03:09:00.800Z,0.90
2024-02-24T03:11:28.405Z,0.50
2024-02-24T03:13:55.593Z,0.40
2024-02-24T03:16:22.690Z,1.00
2024-02-24T03:18:50.735Z,0.40
2024-02-24T03:21:28.772Z,0.20
2024-02-24T03:24:02.627Z,0.20
2024-02-24T03:26:29.959Z,0.20
2024-02-24T03:28:56.981Z,0.20
2024-02-24T03:31:23.971Z,0.47
2024-02-24T03:33:51.152Z,0.20
2024-02-24T03:36:20.041Z,0.30
2024-02-24T03:38:47.470Z,0.20
2024-02-24T03:41:14.524Z,0.20
2024-02-24T03:43:41.590Z,0.20
2024-02-24T03:46:08.625Z,0.20
2024-02-24T03:48:35.901Z,0.20
2024-02-24T03:51:03.178Z,0.20
2024-02-24T03:53:30.188Z,0.30
2024-02-24T03:55:57.188Z,0.20
2024-02-24T03:58:24.254Z,0.20
2024-02-24T04:00:52.600Z,0.23
2024-02-24T04:03:20.316Z,0.23
2024-02-24T04:05:48.366Z,0.30
2024-02-24T04:08:16.048Z,0.20
2024-02-24T04:10:47.372Z,0.43
2024-02-24T04:13:14.565Z,0.30
2024-02-24T04:15:48.563Z,0.40
2024-02-24T04:18:16.502Z,0.20
2024-02-24T04:20:47.872Z,0.30
2024-02-24T04:23:15.272Z,0.40
2024-02-24T04:25:42.160Z,0.23
2024-02-24T04:28:09.864Z,0.60
2024-02-24T04:30:38.866Z,0.30
2024-02-24T04:33:06.582Z,0.30
2024-02-24T04:35:33.804Z,0.53
2024-02-24T04:38:00.913Z,0.43
2024-02-24T04:40:27.868Z,0.53
2024-02-24T04:42:54.912Z,1.07
2024-02-24T04:45:21.960Z,0.80
2024-02-24T04:47:49.086Z,0.60
2024-02-24T04:50:16.221Z,1.03
2024-02-24T04:52:43.226Z,0.80
2024-02-24T04:55:10.245Z,1.30
2024-02-24T04:57:37.171Z,2.07
2024-02-24T05:00:04.568Z,1.90
2024-02-24T05:02:31.575Z,1.77
2024-02-24T05:04:58.666Z,1.90
2024-02-24T05:07:25.845Z,1.50
2024-02-24T05:09:52.773Z,1.30
2024-02-24T05:12:19.942Z,1.43
2024-02-24T05:14:51.271Z,1.00
2024-02-24T05:17:18.236Z,1.60
2024-02-24T05:19:45.379Z,0.80
2024-02-24T05:22:12.259Z,1.20
2024-02-24T05:24:39.332Z,0.73
2024-02-24T05:27:06.666Z,1.77
2024-02-24T05:29:34.232Z,7.50
2024-02-24T05:32:01.340Z,11.23
2024-02-24T05:34:28.516Z,8.80
2024-02-24T05:36:55.949Z,3.27
2024-02-24T05:39:22.903Z,1.33
2024-02-24T05:41:51.708Z,0.97
2024-02-24T05:44:18.975Z,0.80
2024-02-24T05:46:46.093Z,0.70
2024-02-24T05:49:12.978Z,1.03
2024-02-24T05:51:40.940Z,1.70
2024-02-24T05:54:07.954Z,1.37
2024-02-24T05:56:35.020Z,1.60
2024-02-24T05:59:02.069Z,2.17
2024-02-24T06:01:28.946Z,1.33
2024-02-24T06:03:56.211Z,2.03
2024-02-24T06:06:23.383Z,1.67
2024-02-24T06:08:50.595Z,1.13
2024-02-24T06:11:17.936Z,0.60
2024-02-24T06:13:47.385Z,0.30
2024-02-24T06:16:14.392Z,0.40
2024-02-24T06:18:41.430Z,0.40
2024-02-24T06:21:10.319Z,0.30
2024-02-24T06:23:37.405Z,0.70
2024-02-24T06:26:04.606Z,0.63
2024-02-24T06:28:31.530Z,1.63
2024-02-24T06:30:59.064Z,1.47
2024-02-24T06:33:26.145Z,1.17
2024-02-24T06:35:53.570Z,1.17
2024-02-24T06:38:20.781Z,0.80
2024-02-24T06:40:47.877Z,0.70
2024-02-24T06:43:15.380Z,0.30
2024-02-24T06:45:42.446Z,0.37
2024-02-24T06:48:09.559Z,0.30
2024-02-24T06:50:36.668Z,0.30
2024-02-24T06:53:03.856Z,0.20
2024-02-24T06:55:30.942Z,0.30
2024-02-24T06:57:57.861Z,0.20
2024-02-24T07:00:24.953Z,0.20
2024-02-24T07:02:52.449Z,0.30
2024-02-24T07:05:19.637Z,0.20
2024-02-24T07:07:46.629Z,0.23
2024-02-24T07:10:13.759Z,0.50
2024-02-24T07:12:43.527Z,0.27
2024-02-24T07:15:13.009Z,0.30
2024-02-24T07:17:40.433Z,0.40
2024-02-24T07:20:08.401Z,0.30
2024-02-24T07:22:35.548Z,0.30
2024-02-24T07:25:02.547Z,0.50
2024-02-24T07:27:30.052Z,0.40
2024-02-24T07:29:57.386Z,0.30
2024-02-24T07:32:24.825Z,0.80
2024-02-24T07:34:52.030Z,1.90
2024-02-24T07:37:19.196Z,3.43
2024-02-24T07:39:46.192Z,0.90
2024-02-24T07:42:13.260Z,1.20
2024-02-24T07:44:40.370Z,2.50
2024-02-24T07:47:10.570Z,4.73
2024-02-24T07:49:37.708Z,1.80
2024-02-24T07:52:05.931Z,8.53
2024-02-24T07:54:33.132Z,5.90
2024-02-24T07:57:00.350Z,2.70
2024-02-24T07:59:27.467Z,2.03
2024-02-24T08:01:54.560Z,1.40
2024-02-24T08:04:22.157Z,1.97
2024-02-24T08:06:49.551Z,2.47
2024-02-24T08:09:16.876Z,3.03
2024-02-24T08:11:44.375Z,3.00
2024-02-24T08:14:11.835Z,3.83
2024-02-24T08:16:39.900Z,7.27
2024-02-24T08:19:12.023Z,3.07
2024-02-24T08:21:39.681Z,1.40
2024-02-24T08:24:10.938Z,2.07
2024-02-24T08:26:41.286Z,7.73
2024-02-24T08:29:11.331Z,5.87
2024-02-24T08:31:39.813Z,6.73
2024-02-24T08:34:07.356Z,8.23
2024-02-24T08:36:35.318Z,4.30
2024-02-24T08:39:03.353Z,1.47
2024-02-24T08:41:33.433Z,1.20
2024-02-24T08:44:02.853Z,1.67
2024-02-24T08:46:30.558Z,3.83
2024-02-24T08:48:58.391Z,5.30
2024-02-24T08:51:26.995Z,6.70
2024-02-24T08:53:54.410Z,6.97
2024-02-24T08:56:22.908Z,8.67
2024-02-24T08:58:50.417Z,8.17
2024-02-24T09:01:18.169Z,6.97
2024-02-24T09:03:45.423Z,5.03
2024-02-24T09:06:12.661Z,1.60
2024-02-24T09:08:39.828Z,1.00
2024-02-24T09:11:06.915Z,1.93
2024-02-24T09:13:33.888Z,2.17
2024-02-24T09:16:00.936Z,5.67
2024-02-24T09:18:29.387Z,6.97
2024-02-24T09:20:56.574Z,5.47
2024-02-24T09:23:23.688Z,1.93
2024-02-24T09:25:50.673Z,2.50
2024-02-24T09:28:17.882Z,4.50
2024-02-24T09:30:44.932Z,3.50
2024-02-24T09:33:12.103Z,3.10
2024-02-24T09:35:39.331Z,2.40
2024-02-24T09:38:06.352Z,2.80
2024-02-24T09:40:33.455Z,4.17
2024-02-24T09:43:04.760Z,3.27
2024-02-24T09:45:43.296Z,2.40
2024-02-24T09:48:12.016Z,2.17
2024-02-24T09:50:40.045Z,2.30
2024-02-24T09:53:07.231Z,2.17
2024-02-24T09:55:34.370Z,1.73
2024-02-24T09:58:02.118Z,1.67
2024-02-24T10:00:29.106Z,1.70
2024-02-24T10:02:56.584Z,2.70
2024-02-24T10:05:23.726Z,1.40
2024-02-24T10:07:50.806Z,2.10
2024-02-24T10:10:18.365Z,2.07
2024-02-24T10:13:03.803Z,2.23
2024-02-24T10:15:31.139Z,2.20
2024-02-24T10:17:59.528Z,1.83
2024-02-24T10:20:27.412Z,2.73
2024-02-24T10:22:55.065Z,2.70
2024-02-24T10:25:22.055Z,2.93
2024-02-24T10:27:49.338Z,2.63
2024-02-24T10:30:17.251Z,2.73
2024-02-24T10:32:46.702Z,3.27
2024-02-24T10:35:13.882Z,2.40
2024-02-24T10:37:56.998Z,3.57
2024-02-24T10:40:28.028Z,3.17
2024-02-24T10:42:55.212Z,2.67
2024-02-24T10:45:22.498Z,2.83
2024-02-24T10:47:52.534Z,2.90
2024-02-24T10:50:20.450Z,2.53
2024-02-24T10:52:49.209Z,2.63
2024-02-24T10:55:20.489Z,2.57
2024-02-24T10:57:50.299Z,2.43
2024-02-24T11:00:32.875Z,2.27
2024-02-24T11:03:01.159Z,1.70
2024-02-24T11:05:32.253Z,2.87
2024-02-24T11:07:59.679Z,2.90
2024-02-24T11:10:33.609Z,2.30
2024-02-24T11:13:02.574Z,2.70
2024-02-24T11:15:29.638Z,2.73
2024-02-24T11:18:00.227Z,3.30
2024-02-24T11:20:40.422Z,2.50
2024-02-24T11:23:27.962Z,2.93
2024-02-24T11:26:10.590Z,2.80
2024-02-24T11:28:38.725Z,2.10
2024-02-24T11:31:05.895Z,2.63
2024-02-24T11:33:41.023Z,3.10
2024-02-24T11:36:08.885Z,2.47
2024-02-24T11:38:36.117Z,2.70
2024-02-24T11:41:06.723Z,2.80
2024-02-24T11:43:34.111Z,2.80
2024-02-24T11:46:02.494Z,1.90
2024-02-24T11:48:29.619Z,1.43
2024-02-24T11:50:57.017Z,1.00
2024-02-24T11:53:24.573Z,1.03
2024-02-24T11:55:51.808Z,1.13
2024-02-24T11:58:19.208Z,1.00
2024-02-24T12:00:46.894Z,1.87
2024-02-24T12:03:15.246Z,1.60
2024-02-24T12:05:43.037Z,3.50
2024-02-24T12:08:12.548Z,3.50
2024-02-24T12:10:40.390Z,3.50
2024-02-24T12:13:09.790Z,3.13
2024-02-24T12:15:47.241Z,4.47
2024-02-24T12:18:14.792Z,3.70
2024-02-24T12:20:43.168Z,3.40
2024-02-24T12:23:11.285Z,4.20
2024-02-24T12:25:38.678Z,3.50
2024-02-24T12:28:06.515Z,3.43
2024-02-24T12:30:38.286Z,3.17
2024-02-24T12:33:06.662Z,3.00
2024-02-24T12:35:34.197Z,3.10
2024-02-24T12:38:02.623Z,3.60
2024-02-24T12:40:31.290Z,3.33
2024-02-24T12:42:59.467Z,3.07
2024-02-24T12:45:27.244Z,3.70
2024-02-24T12:47:55.063Z,3.90
2024-02-24T12:50:26.234Z,2.37
2024-02-24T12:52:56.559Z,2.20
2024-02-24T12:55:23.642Z,2.30
2024-02-24T12:57:50.981Z,2.60
2024-02-24T13:00:19.477Z,3.17
2024-02-24T13:02:47.599Z,4.17
2024-02-24T13:05:15.837Z,2.17
2024-02-24T13:07:42.913Z,2.07
2024-02-24T13:10:10.186Z,1.80
2024-02-24T13:12:37.292Z,2.53
2024-02-24T13:15:04.741Z,2.43
2024-02-24T13:17:31.856Z,2.83
2024-02-24T13:19:58.930Z,2.70
2024-02-24T13:22:25.860Z,3.47
2024-02-24T13:24:52.796Z,4.13
2024-02-24T13:27:19.776Z,2.80
2024-02-24T13:29:46.893Z,2.20
2024-02-24T13:32:13.866Z,2.97
2024-02-24T13:34:40.883Z,3.37
2024-02-24T13:37:08.670Z,3.10
2024-02-24T13:39:35.788Z,4.17
2024-02-24T13:42:02.867Z,3.97
2024-02-24T13:44:29.799Z,4.20
2024-02-24T13:46:56.946Z,2.63
2024-02-24T13:49:25.917Z,3.67
2024-02-24T13:51:53.068Z,3.60
2024-02-24T13:54:20.191Z,2.70
2024-02-24T13:56:48.173Z,2.77
2024-02-24T13:59:15.282Z,2.73
2024-02-24T14:01:42.303Z,7.77
2024-02-24T14:04:09.293Z,5.63
2024-02-24T14:06:37.541Z,5.00
2024-02-24T14:09:07.995Z,3.10
2024-02-24T14:11:35.619Z,3.47
2024-02-24T14:14:02.598Z,1.90
2024-02-24T14:16:31.318Z,1.40
2024-02-24T14:18:58.769Z,0.90
2024-02-24T14:21:25.916Z,1.60
2024-02-24T14:23:54.137Z,1.20
2024-02-24T14:26:21.250Z,1.27
2024-02-24T14:28:59.488Z,1.20
2024-02-24T14:31:28.736Z,2.20
2024-02-24T14:33:56.197Z,2.30
2024-02-24T14:36:23.366Z,1.07
2024-02-24T14:38:50.375Z,1.63
2024-02-24T14:41:18.400Z,1.30
2024-02-24T14:43:45.568Z,1.23
2024-02-24T14:46:12.694Z,1.40
2024-02-24T14:48:39.839Z,1.23
2024-02-24T14:51:06.953Z,1.67
2024-02-24T14:53:34.025Z,5.50
2024-02-24T14:56:01.511Z,2.80
2024-02-24T14:58:28.846Z,3.70
2024-02-24T15:00:55.897Z,3.70
2024-02-24T15:03:22.970Z,3.00
2024-02-24T15:05:50.135Z,2.67
2024-02-24T15:08:17.590Z,3.27
2024-02-24T15:10:44.758Z,3.07
2024-02-24T15:13:19.411Z,3.37
2024-02-24T15:15:50.097Z,2.53
2024-02-24T15:18:17.274Z,2.90
2024-02-24T15:20:45.287Z,3.40
2024-02-24T15:23:14.449Z,2.03
2024-02-24T15:25:43.171Z,3.10
2024-02-24T15:28:11.910Z,2.97
2024-02-24T15:30:40.732Z,2.93
2024-02-24T15:33:07.951Z,3.63
2024-02-24T15:35:35.078Z,5.40
2024-02-24T15:38:02.176Z,5.40
2024-02-24T15:40:32.712Z,5.53
2024-02-24T15:43:02.589Z,5.90
2024-02-24T15:45:29.567Z,4.00
2024-02-24T15:47:56.730Z,3.70
2024-02-24T15:50:23.980Z,4.00
2024-02-24T15:52:52.007Z,3.63
2024-02-24T15:55:19.053Z,2.50
2024-02-24T15:57:47.658Z,2.10
2024-02-24T16:00:15.309Z,1.80
2024-02-24T16:02:43.628Z,4.10
2024-02-24T16:05:11.067Z,4.03
2024-02-24T16:07:38.167Z,5.00
2024-02-24T16:10:05.753Z,7.20
2024-02-24T16:12:32.774Z,9.00
2024-02-24T16:14:59.942Z,7.23
2024-02-24T16:17:27.024Z,5.77
2024-02-24T16:19:54.286Z,4.93
2024-02-24T16:22:21.423Z,5.67
2024-02-24T16:24:48.289Z,4.40
2024-02-24T16:27:15.398Z,5.43
2024-02-24T16:29:42.491Z,5.33
2024-02-24T16:32:10.117Z,7.47
2024-02-24T16:34:37.748Z,5.77
2024-02-24T16:37:05.090Z,5.97
2024-02-24T16:39:33.848Z,4.40
2024-02-24T16:42:01.387Z,4.90
2024-02-24T16:44:28.953Z,5.03
2024-02-24T16:46:56.438Z,4.20
2024-02-24T16:49:24.243Z,7.97
2024-02-24T16:51:54.042Z,6.07
2024-02-24T16:54:21.358Z,5.77
2024-02-24T16:56:48.470Z,4.90
2024-02-24T16:59:15.754Z,5.10
2024-02-24T17:01:42.936Z,5.43
2024-02-24T17:04:10.040Z,4.40
2024-02-24T17:06:37.409Z,3.43
2024-02-24T17:09:04.941Z,2.10
2024-02-24T17:11:32.648Z,1.70
2024-02-24T17:14:00.065Z,1.33
2024-02-24T17:16:27.249Z,1.23
2024-02-24T17:18:54.564Z,0.70
2024-02-24T17:21:21.693Z,0.53
2024-02-24T17:23:49.223Z,0.50
2024-02-24T17:26:19.851Z,0.70
2024-02-24T17:28:51.385Z,1.20
2024-02-24T17:31:18.450Z,4.27
2024-02-24T17:33:47.134Z,5.30
2024-02-24T17:36:14.372Z,3.57
2024-02-24T17:38:41.489Z,1.67
2024-02-24T17:41:08.717Z,1.67
2024-02-24T17:43:35.688Z,1.60
2024-02-24T17:46:02.913Z,1.27
2024-02-24T17:48:30.216Z,4.20
2024-02-24T17:50:57.508Z,6.63
2024-02-24T17:53:24.677Z,6.50
2024-02-24T17:55:51.783Z,5.70
2024-02-24T17:58:29.359Z,7.00
2024-02-24T18:01:03.638Z,5.00
2024-02-24T18:03:30.744Z,4.27
2024-02-24T18:05:57.916Z,3.40
2024-02-24T18:08:25.034Z,2.17
2024-02-24T18:10:52.057Z,1.40
2024-02-24T18:13:19.162Z,1.13
2024-02-24T18:15:48.898Z,1.10
2024-02-24T18:18:18.073Z,1.50
2024-02-24T18:20:45.238Z,0.90
2024-02-24T18:23:12.343Z,0.93
2024-02-24T18:25:39.416Z,0.80
2024-02-24T18:28:06.578Z,1.17
2024-02-24T18:30:33.537Z,1.00
2024-02-24T18:33:00.709Z,2.23
2024-02-24T18:35:27.828Z,2.10
2024-02-24T18:37:54.818Z,3.77
2024-02-24T18:40:21.778Z,3.90
2024-02-24T18:42:48.808Z,4.00
2024-02-24T18:45:16.994Z,4.30
2024-02-24T18:47:44.081Z,4.70
2024-02-24T18:50:11.605Z,5.20
2024-02-24T18:52:39.379Z,4.63
2024-02-24T18:55:06.870Z,4.63
2024-02-24T18:57:33.928Z,4.63
2024-02-24T19:00:01.206Z,4.93
2024-02-24T19:02:28.679Z,17.43
2024-02-24T19:04:55.735Z,15.07
2024-02-24T19:07:22.852Z,4.90
2024-02-24T19:09:49.774Z,3.90
2024-02-24T19:12:18.057Z,4.70
2024-02-24T19:14:51.820Z,3.87
2024-02-24T19:17:22.099Z,3.77
2024-02-24T19:19:50.385Z,2.63
2024-02-24T19:22:17.588Z,2.50
2024-02-24T19:24:44.780Z,2.20
2024-02-24T19:27:11.875Z,1.20
2024-02-24T19:29:44.573Z,1.50
2024-02-24T19:32:12.154Z,1.37
2024-02-24T19:34:39.538Z,2.00
2024-02-24T19:37:10.347Z,1.77
2024-02-24T19:39:37.925Z,1.60
2024-02-24T19:42:05.622Z,3.20
2024-02-24T19:44:33.006Z,3.70
2024-02-24T19:47:00.100Z,3.00
2024-02-24T19:49:27.221Z,3.60
2024-02-24T19:51:54.186Z,3.97
2024-02-24T19:54:21.093Z,3.53
2024-02-24T19:56:48.036Z,3.13
2024-02-24T19:59:15.081Z,2.73
2024-02-24T20:01:41.997Z,1.60
2024-02-24T20:04:09.356Z,2.57
2024-02-24T20:06:36.854Z,3.17
2024-02-24T20:09:04.063Z,3.10
2024-02-24T20:11:31.289Z,3.57
2024-02-24T20:13:58.262Z,4.17
2024-02-24T20:16:25.147Z,3.87
2024-02-24T20:18:52.282Z,2.80
2024-02-24T20:21:19.349Z,2.70
2024-02-24T20:23:47.643Z,4.63
2024-02-24T20:26:14.715Z,4.80
2024-02-24T20:28:44.989Z,4.60
2024-02-24T20:31:14.320Z,4.80
2024-02-24T20:33:47.527Z,5.30
2024-02-24T20:36:20.000Z,4.70
2024-02-24T20:38:48.356Z,3.20
2024-02-24T20:41:17.900Z,3.20
2024-02-24T20:43:45.499Z,3.27
2024-02-24T20:46:12.443Z,3.07
2024-02-24T20:48:39.529Z,4.93
2024-02-24T20:51:06.609Z,2.40
2024-02-24T20:53:33.546Z,3.63
2024-02-24T20:56:02.226Z,2.60
2024-02-24T20:58:29.220Z,3.10
2024-02-24T21:00:56.309Z,3.60
2024-02-24T21:03:23.405Z,3.87
2024-02-24T21:05:50.517Z,3.27
2024-02-24T21:08:17.533Z,3.00
2024-02-24T21:10:44.486Z,5.53
2024-02-24T21:13:11.350Z,7.87
2024-02-24T21:15:38.186Z,8.53
2024-02-24T21:18:05.377Z,9.83
2024-02-24T21:20:32.397Z,9.33
2024-02-24T21:22:59.300Z,10.07
2024-02-24T21:25:29.264Z,7.77
2024-02-24T21:27:58.234Z,6.30
2024-02-24T21:30:26.256Z,7.40
2024-02-24T21:32:54.167Z,9.30
2024-02-24T21:35:21.376Z,6.17
2024-02-24T21:37:48.349Z,5.83
2024-02-24T21:40:15.817Z,5.20
2024-02-24T21:42:43.230Z,5.07
2024-02-24T21:45:10.476Z,6.00
2024-02-24T21:47:37.462Z,6.17
2024-02-24T21:50:05.364Z,6.10
2024-02-24T21:52:36.001Z,5.17
2024-02-24T21:55:03.495Z,4.17
2024-02-24T21:57:30.709Z,3.47
2024-02-24T21:59:57.648Z,4.17
2024-02-24T22:02:24.708Z,3.40
2024-02-24T22:04:53.310Z,3.30
2024-02-24T22:07:22.725Z,3.00
2024-02-24T22:09:49.814Z,2.70
2024-02-24T22:12:16.854Z,3.30
2024-02-24T22:14:43.880Z,3.03
2024-02-24T22:17:12.445Z,3.00
2024-02-24T22:19:39.546Z,4.00
2024-02-24T22:22:06.527Z,3.30
2024-02-24T22:24:33.672Z,2.50
2024-02-24T22:27:00.662Z,2.80
2024-02-24T22:29:27.688Z,2.53
2024-02-24T22:31:54.722Z,3.10
2024-02-24T22:34:21.837Z,2.13
2024-02-24T22:36:48.978Z,2.73
2024-02-24T22:39:15.968Z,2.30
2024-02-24T22:41:42.991Z,2.53
2024-02-24T22:44:09.917Z,2.30
2024-02-24T22:46:37.213Z,2.53
2024-02-24T22:49:04.473Z,2.07
2024-02-24T22:51:31.601Z,2.23
2024-02-24T22:53:58.582Z,2.10
2024-02-24T22:56:25.649Z,1.50
2024-02-24T22:58:56.229Z,2.47
2024-02-24T23:01:23.375Z,1.80
2024-02-24T23:03:50.319Z,1.67
2024-02-24T23:06:17.329Z,2.70
2024-02-24T23:08:44.338Z,1.90
2024-02-24T23:11:16.708Z,2.63
2024-02-24T23:13:49.272Z,2.20
2024-02-24T23:16:16.082Z,2.33
2024-02-24T23:18:43.123Z,2.07
2024-02-24T23:21:11.252Z,3.47
2024-02-24T23:23:38.392Z,2.40
2024-02-24T23:26:05.385Z,2.70
2024-02-24T23:28:32.366Z,3.50
2024-02-24T23:30:59.612Z,4.40
2024-02-24T23:33:26.718Z,4.63
2024-02-24T23:35:53.867Z,2.80
2024-02-24T23:38:20.826Z,1.90
2024-02-24T23:40:47.755Z,2.10
2024-02-24T23:43:14.769Z,2.47
2024-02-24T23:45:42.794Z,2.77
2024-02-24T23:48:10.082Z,2.10
2024-02-24T23:50:37.037Z,2.50
2024-02-24T23:53:04.086Z,3.13
2024-02-24T23:55:30.935Z,3.23
2024-02-24T23:57:57.805Z,3.50
